sensor_id;sensor_type;location;lat;lon;timestamp;temperature;humidity
20504;DHT22;10410;51.046;6.980;2024-03-08T00:05:36;4.10;99.90
20504;DHT22;10410;51.046;6.980;2024-03-08T00:12:44;4.10;99.90
20504;DHT22;10410;51.046;6.980;2024-03-08T00:19:45;4.00;99.90
20504;DHT22;10410;51.046;6.980;2024-03-08T00:26:46;4.00;99.90
20504;DHT22;10410;51.046;6.980;2024-03-08T00:33:47;3.90;99.90
20504;DHT22;10410;51.046;6.980;2024-03-08T00:40:47;3.80;99.90
20504;DHT22;10410;51.046;6.980;2024-03-08T00:47:48;3.70;99.90
20504;DHT22;10410;51.046;6.980;2024-03-08T00:54:48;3.70;99.90
20504;DHT22;10410;51.046;6.980;2024-03-08T01:01:49;3.60;99.90
20504;DHT22;10410;51.046;6.980;2024-03-08T01:08:49;3.50;99.90
20504;DHT22;10410;51.046;6.980;2024-03-08T01:15:53;3.40;99.90
20504;DHT22;10410;51.046;6.980;2024-03-08T01:22:55;3.20;99.90
20504;DHT22;10410;51.046;6.980;2024-03-08T01:29:55;3.10;99.90
20504;DHT22;10410;51.046;6.980;2024-03-08T01:36:56;3.00;99.90
20504;DHT22;10410;51.046;6.980;2024-03-08T01:43:56;3.00;99.90
20504;DHT22;10410;51.046;6.980;2024-03-08T01:50:57;3.00;99.90
20504;DHT22;10410;51.046;6.980;2024-03-08T01:57:59;3.00;99.90
20504;DHT22;10410;51.046;6.980;2024-03-08T02:05:00;3.00;99.90
20504;DHT22;10410;51.046;6.980;2024-03-08T02:12:01;3.10;99.90
20504;DHT22;10410;51.046;6.980;2024-03-08T02:19:06;3.10;99.90
20504;DHT22;10410;51.046;6.980;2024-03-08T02:26:10;3.10;99.90
20504;DHT22;10410;51.046;6.980;2024-03-08T02:33:10;3.10;99.90
20504;DHT22;10410;51.046;6.980;2024-03-08T02:40:14;3.10;99.90
20504;DHT22;10410;51.046;6.980;2024-03-08T02:47:14;3.10;99.90
20504;DHT22;10410;51.046;6.980;2024-03-08T02:54:15;3.10;99.90
20504;DHT22;10410;51.046;6.980;2024-03-08T03:01:17;3.10;99.90
20504;DHT22;10410;51.046;6.980;2024-03-08T03:08:20;3.00;99.90
20504;DHT22;10410;51.046;6.980;2024-03-08T03:15:21;3.00;99.90
20504;DHT22;10410;51.046;6.980;2024-03-08T03:22:25;3.00;99.90
20504;DHT22;10410;51.046;6.980;2024-03-08T03:29:26;3.00;99.90
20504;DHT22;10410;51.046;6.980;2024-03-08T03:36:26;2.90;99.90
20504;DHT22;10410;51.046;6.980;2024-03-08T03:43:28;2.90;99.90
20504;DHT22;10410;51.046;6.980;2024-03-08T03:50:28;2.90;99.90
20504;DHT22;10410;51.046;6.980;2024-03-08T03:57:29;2.90;99.90
20504;DHT22;10410;51.046;6.980;2024-03-08T04:04:30;2.90;99.90
20504;DHT22;10410;51.046;6.980;2024-03-08T04:11:30;2.90;99.90
20504;DHT22;10410;51.046;6.980;2024-03-08T04:18:31;2.80;99.90
20504;DHT22;10410;51.046;6.980;2024-03-08T04:25:32;2.80;99.90
20504;DHT22;10410;51.046;6.980;2024-03-08T04:32:32;2.80;99.90
20504;DHT22;10410;51.046;6.980;2024-03-08T04:39:33;2.70;99.90
20504;DHT22;10410;51.046;6.980;2024-03-08T04:46:34;2.80;99.90
20504;DHT22;10410;51.046;6.980;2024-03-08T04:53:35;2.80;99.90
20504;DHT22;10410;51.046;6.980;2024-03-08T05:00:36;2.80;99.90
20504;DHT22;10410;51.046;6.980;2024-03-08T05:07:36;2.80;99.90
20504;DHT22;10410;51.046;6.980;2024-03-08T05:14:37;2.90;99.90
20504;DHT22;10410;51.046;6.980;2024-03-08T05:21:37;2.90;99.90
20504;DHT22;10410;51.046;6.980;2024-03-08T05:28:38;2.90;99.90
20504;DHT22;10410;51.046;6.980;2024-03-08T05:35:38;2.90;99.90
20504;DHT22;10410;51.046;6.980;2024-03-08T05:42:40;2.90;99.90
20504;DHT22;10410;51.046;6.980;2024-03-08T05:49:40;2.90;99.90
20504;DHT22;10410;51.046;6.980;2024-03-08T05:56:41;2.90;99.90
20504;DHT22;10410;51.046;6.980;2024-03-08T06:03:45;2.90;99.90
20504;DHT22;10410;51.046;6.980;2024-03-08T06:10:47;2.90;99.90
20504;DHT22;10410;51.046;6.980;2024-03-08T06:17:52;2.90;99.90
20504;DHT22;10410;51.046;6.980;2024-03-08T06:24:53;2.90;99.90
20504;DHT22;10410;51.046;6.980;2024-03-08T06:31:54;2.90;99.90
20504;DHT22;10410;51.046;6.980;2024-03-08T06:38:56;2.90;99.90
20504;DHT22;10410;51.046;6.980;2024-03-08T06:45:57;2.90;99.90
20504;DHT22;10410;51.046;6.980;2024-03-08T06:52:58;2.90;99.90
20504;DHT22;10410;51.046;6.980;2024-03-08T06:59:59;3.00;99.90
20504;DHT22;10410;51.046;6.980;2024-03-08T07:07:00;3.00;99.90
20504;DHT22;10410;51.046;6.980;2024-03-08T07:14:02;3.10;99.90
20504;DHT22;10410;51.046;6.980;2024-03-08T07:21:05;3.20;99.90
20504;DHT22;10410;51.046;6.980;2024-03-08T07:28:06;3.40;99.90
20504;DHT22;10410;51.046;6.980;2024-03-08T07:35:11;3.50;99.90
20504;DHT22;10410;51.046;6.980;2024-03-08T07:42:12;3.80;99.90
20504;DHT22;10410;51.046;6.980;2024-03-08T07:49:13;4.00;99.90
20504;DHT22;10410;51.046;6.980;2024-03-08T07:56:15;4.20;99.90
20504;DHT22;10410;51.046;6.980;2024-03-08T08:03:18;4.40;99.90
20504;DHT22;10410;51.046;6.980;2024-03-08T08:10:21;4.60;99.90
20504;DHT22;10410;51.046;6.980;2024-03-08T08:17:22;4.80;99.90
20504;DHT22;10410;51.046;6.980;2024-03-08T08:24:23;5.20;99.90
20504;DHT22;10410;51.046;6.980;2024-03-08T08:31:23;5.30;99.90
20504;DHT22;10410;51.046;6.980;2024-03-08T08:38:23;5.40;99.90
20504;DHT22;10410;51.046;6.980;2024-03-08T08:45:25;5.50;99.90
20504;DHT22;10410;51.046;6.980;2024-03-08T08:52:26;5.90;99.90
20504;DHT22;10410;51.046;6.980;2024-03-08T08:59:27;6.10;99.90
20504;DHT22;10410;51.046;6.980;2024-03-08T09:06:27;6.30;99.90
20504;DHT22;10410;51.046;6.980;2024-03-08T09:13:28;6.40;99.90
20504;DHT22;10410;51.046;6.980;2024-03-08T09:20:32;6.50;99.90
20504;DHT22;10410;51.046;6.980;2024-03-08T09:27:33;6.60;99.90
20504;DHT22;10410;51.046;6.980;2024-03-08T09:34:38;6.90;99.90
20504;DHT22;10410;51.046;6.980;2024-03-08T09:41:38;7.00;99.90
20504;DHT22;10410;51.046;6.980;2024-03-08T09:48:39;7.20;99.90
20504;DHT22;10410;51.046;6.980;2024-03-08T09:55:42;7.40;99.90
20504;DHT22;10410;51.046;6.980;2024-03-08T10:02:46;7.60;99.90
20504;DHT22;10410;51.046;6.980;2024-03-08T10:09:46;7.70;99.90
20504;DHT22;10410;51.046;6.980;2024-03-08T10:16:52;7.90;99.90
20504;DHT22;10410;51.046;6.980;2024-03-08T10:23:53;8.10;99.90
20504;DHT22;10410;51.046;6.980;2024-03-08T10:30:56;8.20;99.90
20504;DHT22;10410;51.046;6.980;2024-03-08T10:37:58;8.40;99.90
20504;DHT22;10410;51.046;6.980;2024-03-08T10:45:15;8.60;99.90
20504;DHT22;10410;51.046;6.980;2024-03-08T10:52:16;8.70;99.90
20504;DHT22;10410;51.046;6.980;2024-03-08T10:59:19;8.90;99.90
20504;DHT22;10410;51.046;6.980;2024-03-08T11:20:36;9.50;99.90
20504;DHT22;10410;51.046;6.980;2024-03-08T11:27:37;9.70;99.90
20504;DHT22;10410;51.046;6.980;2024-03-08T11:34:40;9.80;99.90
20504;DHT22;10410;51.046;6.980;2024-03-08T11:41:40;9.90;99.90
20504;DHT22;10410;51.046;6.980;2024-03-08T11:48:43;10.10;99.90
20504;DHT22;10410;51.046;6.980;2024-03-08T11:55:44;10.30;99.90
20504;DHT22;10410;51.046;6.980;2024-03-08T12:02:45;10.50;99.90
20504;DHT22;10410;51.046;6.980;2024-03-08T12:10:16;10.60;99.90
20504;DHT22;10410;51.046;6.980;2024-03-08T12:17:17;10.70;99.90
20504;DHT22;10410;51.046;6.980;2024-03-08T12:24:18;10.90;99.90
20504;DHT22;10410;51.046;6.980;2024-03-08T12:31:19;11.10;99.90
20504;DHT22;10410;51.046;6.980;2024-03-08T12:38:28;11.30;99.90
20504;DHT22;10410;51.046;6.980;2024-03-08T12:45:29;11.50;99.90
20504;DHT22;10410;51.046;6.980;2024-03-08T12:52:29;11.70;99.90
20504;DHT22;10410;51.046;6.980;2024-03-08T12:59:30;11.90;99.90
20504;DHT22;10410;51.046;6.980;2024-03-08T13:06:31;12.10;99.90
20504;DHT22;10410;51.046;6.980;2024-03-08T13:13:32;12.20;99.90
20504;DHT22;10410;51.046;6.980;2024-03-08T13:20:36;12.50;99.90
20504;DHT22;10410;51.046;6.980;2024-03-08T13:27:47;12.70;99.90
20504;DHT22;10410;51.046;6.980;2024-03-08T13:34:47;12.90;99.90
20504;DHT22;10410;51.046;6.980;2024-03-08T13:41:48;13.10;99.90
20504;DHT22;10410;51.046;6.980;2024-03-08T13:48:48;13.60;99.90
20504;DHT22;10410;51.046;6.980;2024-03-08T13:55:50;14.00;99.90
20504;DHT22;10410;51.046;6.980;2024-03-08T14:02:51;14.10;99.90
20504;DHT22;10410;51.046;6.980;2024-03-08T14:09:51;14.30;99.90
20504;DHT22;10410;51.046;6.980;2024-03-08T14:16:53;14.50;99.90
20504;DHT22;10410;51.046;6.980;2024-03-08T14:23:58;14.50;99.90
20504;DHT22;10410;51.046;6.980;2024-03-08T14:30:58;14.60;99.90
20504;DHT22;10410;51.046;6.980;2024-03-08T14:38:03;14.70;99.90
20504;DHT22;10410;51.046;6.980;2024-03-08T14:45:03;14.90;99.90
20504;DHT22;10410;51.046;6.980;2024-03-08T14:52:04;15.20;99.90
20504;DHT22;10410;51.046;6.980;2024-03-08T14:59:25;15.70;99.00
20504;DHT22;10410;51.046;6.980;2024-03-08T15:06:29;16.10;98.00
20504;DHT22;10410;51.046;6.980;2024-03-08T15:13:34;16.30;96.90
20504;DHT22;10410;51.046;6.980;2024-03-08T15:20:42;16.40;95.50
20504;DHT22;10410;51.046;6.980;2024-03-08T15:27:43;16.20;95.40
20504;DHT22;10410;51.046;6.980;2024-03-08T15:34:43;16.10;95.40
20504;DHT22;10410;51.046;6.980;2024-03-08T15:41:44;16.00;94.70
20504;DHT22;10410;51.046;6.980;2024-03-08T15:48:44;15.90;94.50
20504;DHT22;10410;51.046;6.980;2024-03-08T15:55:45;15.50;94.40
20504;DHT22;10410;51.046;6.980;2024-03-08T16:02:47;14.50;93.90
20504;DHT22;10410;51.046;6.980;2024-03-08T16:09:50;13.90;95.30
20504;DHT22;10410;51.046;6.980;2024-03-08T16:16:51;13.50;96.10
20504;DHT22;10410;51.046;6.980;2024-03-08T16:23:51;13.30;96.60
20504;DHT22;10410;51.046;6.980;2024-03-08T16:30:54;12.90;96.30
20504;DHT22;10410;51.046;6.980;2024-03-08T16:37:55;12.60;96.00
20504;DHT22;10410;51.046;6.980;2024-03-08T16:44:56;12.30;96.40
20504;DHT22;10410;51.046;6.980;2024-03-08T16:51:57;12.00;96.40
20504;DHT22;10410;51.046;6.980;2024-03-08T16:58:57;11.80;96.70
20504;DHT22;10410;51.046;6.980;2024-03-08T17:05:58;11.60;96.70
20504;DHT22;10410;51.046;6.980;2024-03-08T17:13:00;11.40;97.20
20504;DHT22;10410;51.046;6.980;2024-03-08T17:20:01;11.20;97.20
20504;DHT22;10410;51.046;6.980;2024-03-08T17:27:02;11.00;97.40
20504;DHT22;10410;51.046;6.980;2024-03-08T17:34:03;10.80;97.80
20504;DHT22;10410;51.046;6.980;2024-03-08T17:41:05;10.70;98.00
20504;DHT22;10410;51.046;6.980;2024-03-08T17:48:08;10.50;98.40
20504;DHT22;10410;51.046;6.980;2024-03-08T17:55:18;10.40;98.60
20504;DHT22;10410;51.046;6.980;2024-03-08T18:02:19;10.20;99.20
20504;DHT22;10410;51.046;6.980;2024-03-08T18:09:20;10.10;99.30
20504;DHT22;10410;51.046;6.980;2024-03-08T18:16:23;10.00;99.50
20504;DHT22;10410;51.046;6.980;2024-03-08T18:23:24;9.90;99.80
20504;DHT22;10410;51.046;6.980;2024-03-08T18:30:25;9.80;99.90
20504;DHT22;10410;51.046;6.980;2024-03-08T18:37:26;9.70;99.90
20504;DHT22;10410;51.046;6.980;2024-03-08T18:44:28;9.60;99.90
20504;DHT22;10410;51.046;6.980;2024-03-08T18:51:28;9.50;99.90
20504;DHT22;10410;51.046;6.980;2024-03-08T18:58:29;9.40;99.90
20504;DHT22;10410;51.046;6.980;2024-03-08T19:05:44;9.30;99.90
20504;DHT22;10410;51.046;6.980;2024-03-08T19:12:51;9.20;99.90
20504;DHT22;10410;51.046;6.980;2024-03-08T19:19:52;9.10;99.90
20504;DHT22;10410;51.046;6.980;2024-03-08T19:26:52;9.00;99.90
20504;DHT22;10410;51.046;6.980;2024-03-08T19:33:53;9.00;99.90
20504;DHT22;10410;51.046;6.980;2024-03-08T19:40:53;8.90;99.90
20504;DHT22;10410;51.046;6.980;2024-03-08T19:47:59;8.80;99.90
20504;DHT22;10410;51.046;6.980;2024-03-08T19:55:01;8.60;99.90
20504;DHT22;10410;51.046;6.980;2024-03-08T20:02:01;8.50;99.90
20504;DHT22;10410;51.046;6.980;2024-03-08T20:09:02;8.30;99.90
20504;DHT22;10410;51.046;6.980;2024-03-08T20:16:03;8.20;99.90
20504;DHT22;10410;51.046;6.980;2024-03-08T20:23:04;8.10;99.90
20504;DHT22;10410;51.046;6.980;2024-03-08T20:30:06;8.00;99.90
20504;DHT22;10410;51.046;6.980;2024-03-08T20:37:12;7.90;99.90
20504;DHT22;10410;51.046;6.980;2024-03-08T20:44:13;7.80;99.90
20504;DHT22;10410;51.046;6.980;2024-03-08T20:51:15;7.80;99.90
20504;DHT22;10410;51.046;6.980;2024-03-08T20:58:17;7.80;99.90
20504;DHT22;10410;51.046;6.980;2024-03-08T21:05:19;7.70;99.90
20504;DHT22;10410;51.046;6.980;2024-03-08T21:12:19;7.70;99.90
20504;DHT22;10410;51.046;6.980;2024-03-08T21:19:21;7.70;99.90
20504;DHT22;10410;51.046;6.980;2024-03-08T21:26:22;7.70;99.90
20504;DHT22;10410;51.046;6.980;2024-03-08T21:33:22;7.70;99.90
20504;DHT22;10410;51.046;6.980;2024-03-08T21:40:23;7.60;99.90
20504;DHT22;10410;51.046;6.980;2024-03-08T21:47:27;7.60;99.90
20504;DHT22;10410;51.046;6.980;2024-03-08T21:54:27;7.60;99.90
20504;DHT22;10410;51.046;6.980;2024-03-08T22:01:28;7.50;99.90
20504;DHT22;10410;51.046;6.980;2024-03-08T22:08:28;7.50;99.90
20504;DHT22;10410;51.046;6.980;2024-03-08T22:15:29;7.40;99.90
20504;DHT22;10410;51.046;6.980;2024-03-08T22:22:29;7.30;99.90
20504;DHT22;10410;51.046;6.980;2024-03-08T22:29:30;7.20;99.90
20504;DHT22;10410;51.046;6.980;2024-03-08T22:36:31;7.20;99.90
20504;DHT22;10410;51.046;6.980;2024-03-08T22:43:31;7.10;99.90
20504;DHT22;10410;51.046;6.980;2024-03-08T22:50:32;7.00;99.90
20504;DHT22;10410;51.046;6.980;2024-03-08T22:57:33;6.90;99.90
20504;DHT22;10410;51.046;6.980;2024-03-08T23:04:34;6.80;99.90
20504;DHT22;10410;51.046;6.980;2024-03-08T23:11:34;6.80;99.90
20504;DHT22;10410;51.046;6.980;2024-03-08T23:18:35;6.80;99.90
20504;DHT22;10410;51.046;6.980;2024-03-08T23:25:36;6.70;99.90
20504;DHT22;10410;51.046;6.980;2024-03-08T23:32:37;6.70;99.90
20504;DHT22;10410;51.046;6.980;2024-03-08T23:39:38;6.60;99.90
20504;DHT22;10410;51.046;6.980;2024-03-08T23:46:38;6.60;99.90
20504;DHT22;10410;51.046;6.980;2024-03-08T23:53:41;6.60;99.90
